Time;durP1;ratioP1;P1;durP2;ratioP2;P2;SDS_P1;SDS_P2;PMS_P1;PMS_P2;Temp;Humidity;BMP_temperature;BMP_pressure;BME280_temperature;BME280_humidity;BME280_pressure;Samples;Min_cycle;Max_cycle;Signal;HPM_P1;HPM_P2
2023/12/04 00:02:00;;;;;;;17.13;5.80;;;;;;;5.63;87.48;98825.22;4983908;28;20042;-43
2023/12/04 00:04:27;;;;;;;19.40;7.43;;;;;;;5.65;86.80;98831.19;4984819;28;20050;-49
2023/12/04 00:06:54;;;;;;;11.38;3.97;;;;;;;5.68;87.88;98820.06;4984684;28;20057;-46
2023/12/04 00:09:21;;;;;;;18.35;5.60;;;;;;;5.72;87.19;98818.31;4982963;28;20283;-46
2023/12/04 00:11:47;;;;;;;10.10;4.85;;;;;;;5.75;87.78;98821.72;4983922;28;20120;-43
2023/12/04 00:14:14;;;;;;;13.50;5.25;;;;;;;5.79;87.83;98812.31;4984267;28;20046;-49
2023/12/04 00:16:41;;;;;;;14.43;4.00;;;;;;;5.80;89.03;98808.88;4980101;28;20057;-53
2023/12/04 00:19:08;;;;;;;12.98;5.03;;;;;;;5.88;86.99;98807.13;4982014;28;20058;-43
2023/12/04 00:21:35;;;;;;;8.98;4.57;;;;;;;5.90;87.92;98805.44;4987798;28;20084;-53
2023/12/04 00:24:04;;;;;;;12.60;5.05;;;;;;;5.95;87.97;98801.97;4988534;28;20050;-42
2023/12/04 00:26:30;;;;;;;18.77;5.95;;;;;;;5.97;88.66;98789.97;4986777;28;20073;-46
2023/12/04 00:28:57;;;;;;;17.90;5.15;;;;;;;5.91;88.74;98790.84;4983054;28;20491;-47
2023/12/04 00:31:24;;;;;;;6.25;2.63;;;;;;;5.94;89.10;98785.69;4982060;28;20042;-49
2023/12/04 00:33:50;;;;;;;13.10;4.97;;;;;;;5.94;88.84;98774.59;4982378;28;20062;-48
2023/12/04 00:36:19;;;;;;;6.80;3.13;;;;;;;5.95;88.35;98771.13;4984547;28;20181;-44
2023/12/04 00:38:46;;;;;;;11.98;3.60;;;;;;;5.92;88.89;98766.88;4983597;28;20050;-48
2023/12/04 00:41:13;;;;;;;9.80;2.60;;;;;;;5.98;87.75;98766.00;4980468;28;20051;-42
2023/12/04 00:43:40;;;;;;;8.23;3.90;;;;;;;5.99;88.14;98753.13;4983207;28;20042;-51
2023/12/04 00:46:07;;;;;;;7.70;3.75;;;;;;;6.01;87.97;98751.41;4982156;28;20448;-51
2023/12/04 00:48:33;;;;;;;6.55;3.42;;;;;;;6.02;87.83;98747.13;4982029;28;20085;-47
2023/12/04 00:51:00;;;;;;;7.13;3.05;;;;;;;6.07;86.99;98737.69;4984523;28;20054;-49
2023/12/04 00:53:27;;;;;;;10.02;3.83;;;;;;;6.11;87.04;98734.25;4982028;28;20145;-48
2023/12/04 00:55:54;;;;;;;7.13;3.33;;;;;;;6.07;87.42;98724.84;4983966;28;20108;-48
2023/12/04 00:58:20;;;;;;;10.65;3.55;;;;;;;6.09;86.56;98712.84;4983896;28;20153;-52
2023/12/04 01:00:48;;;;;;;7.45;2.95;;;;;;;6.13;87.15;98708.53;4981156;28;20069;-47
2023/12/04 01:03:15;;;;;;;10.25;2.92;;;;;;;6.12;86.72;98707.66;4983197;28;20163;-47
2023/12/04 01:05:42;;;;;;;8.70;3.08;;;;;;;6.14;86.12;98695.66;4984002;28;20495;-48
2023/12/04 01:08:09;;;;;;;7.70;2.75;;;;;;;6.12;86.77;98694.81;4979620;28;20057;-40
2023/12/04 01:10:36;;;;;;;7.88;3.28;;;;;;;6.15;85.53;98692.22;4984339;28;20076;-52
2023/12/04 01:13:02;;;;;;;4.68;2.15;;;;;;;6.13;86.47;98688.81;4977083;28;20551;-49
2023/12/04 01:15:29;;;;;;;4.97;1.92;;;;;;;6.15;86.59;98675.97;4980684;28;20050;-46
2023/12/04 01:17:56;;;;;;;6.05;2.22;;;;;;;6.13;86.47;98673.41;4983591;28;20054;-46
2023/12/04 01:20:23;;;;;;;6.05;2.42;;;;;;;6.13;87.06;98672.53;4976353;28;20042;-51
2023/12/04 01:22:51;;;;;;;6.05;2.88;;;;;;;6.14;86.47;98663.94;4983147;28;20598;-46
2023/12/04 01:25:18;;;;;;;3.80;2.08;;;;;;;6.10;86.45;98660.56;4984754;28;20046;-43
2023/12/04 01:27:45;;;;;;;5.72;3.13;;;;;;;6.06;85.38;98648.59;4981611;28;20418;-52
2023/12/04 01:30:13;;;;;;;5.18;1.98;;;;;;;6.05;85.90;98644.31;4982808;28;20054;-48
2023/12/04 01:32:40;;;;;;;5.10;1.55;;;;;;;6.07;86.44;98652.00;4981435;28;20125;-55
2023/12/04 01:35:07;;;;;;;5.75;2.63;;;;;;;6.09;85.93;98640.88;4981804;28;20097;-47
2023/12/04 01:37:34;;;;;;;3.88;2.15;;;;;;;6.03;87.94;98646.00;4984645;28;20057;-48
2023/12/04 01:40:01;;;;;;;6.30;2.90;;;;;;;6.07;86.69;98647.72;4982748;28;20718;-43
2023/12/04 01:42:28;;;;;;;4.47;2.42;;;;;;;6.09;87.08;98638.28;4979729;28;20134;-46
2023/12/04 01:44:56;;;;;;;6.03;2.58;;;;;;;6.11;87.23;98641.69;4981221;28;20047;-46
2023/12/04 01:47:23;;;;;;;11.27;2.47;;;;;;;6.09;87.97;98625.44;4982877;28;20137;-48
2023/12/04 01:49:51;;;;;;;5.38;3.00;;;;;;;6.02;87.72;98628.88;4984068;28;20053;-45
2023/12/04 01:52:19;;;;;;;10.05;4.68;;;;;;;6.11;86.64;98615.97;4981882;28;20049;-50
2023/12/04 01:54:47;;;;;;;7.80;3.30;;;;;;;6.07;87.28;98616.88;4987649;28;20093;-50
2023/12/04 01:57:14;;;;;;;8.98;3.25;;;;;;;6.09;86.44;98610.00;4994824;28;20054;-49
2023/12/04 01:59:42;;;;;;;6.97;3.53;;;;;;;6.12;86.88;98609.97;4998269;28;20464;-49
2023/12/04 02:02:10;;;;;;;8.85;4.97;;;;;;;6.13;87.78;98603.97;4982654;28;20057;-45
2023/12/04 02:04:39;;;;;;;6.88;3.03;;;;;;;6.11;87.45;98610.84;4997884;28;20064;-53
2023/12/04 02:07:09;;;;;;;6.90;2.83;;;;;;;6.15;86.94;98594.53;4988380;28;20081;-48
2023/12/04 02:09:37;;;;;;;10.18;3.25;;;;;;;6.21;87.92;98600.50;4981045;28;20519;-47
2023/12/04 02:12:06;;;;;;;6.55;3.40;;;;;;;6.21;87.54;98603.06;4988788;28;20042;-51
2023/12/04 02:14:33;;;;;;;5.15;2.75;;;;;;;6.20;87.82;98596.19;4990368;28;20547;-47
2023/12/04 02:17:05;;;;;;;7.93;3.88;;;;;;;6.20;87.77;98589.34;4992576;28;20050;-46
2023/12/04 02:19:32;;;;;;;8.07;3.67;;;;;;;6.19;87.01;98590.22;4985385;28;20109;-50
2023/12/04 02:22:00;;;;;;;6.28;3.00;;;;;;;6.19;87.52;98591.94;4993969;28;20039;-44
2023/12/04 02:24:28;;;;;;;8.48;3.78;;;;;;;6.16;87.88;98580.81;4991955;28;20054;-44
2023/12/04 02:27:03;;;;;;;6.00;2.47;;;;;;;6.20;87.76;98585.91;4993438;28;20558;-41
2023/12/04 02:29:37;;;;;;;4.15;2.17;;;;;;;6.15;87.25;98573.97;5003507;28;20636;-44
2023/12/04 02:32:05;;;;;;;3.63;1.25;;;;;;;6.16;88.33;98570.53;4998029;28;20582;-44
2023/12/04 02:34:33;;;;;;;4.82;1.98;;;;;;;6.18;88.49;98567.94;4980240;28;20046;-48
2023/12/04 02:37:02;;;;;;;3.75;1.77;;;;;;;6.16;87.53;98565.41;4987152;28;20512;-45
2023/12/04 02:39:29;;;;;;;2.80;2.42;;;;;;;6.17;88.14;98567.09;4991703;28;20419;-44
2023/12/04 02:41:56;;;;;;;1.35;1.10;;;;;;;6.17;86.83;98566.22;5002144;28;20048;-43
2023/12/04 02:44:23;;;;;;;3.55;2.70;;;;;;;6.16;88.62;98557.69;4991650;28;20599;-45
2023/12/04 02:46:49;;;;;;;4.72;1.85;;;;;;;6.13;86.85;98557.72;4990943;28;20050;-49
2023/12/04 02:49:16;;;;;;;4.45;2.30;;;;;;;6.19;86.73;98555.94;4995479;28;20047;-49
2023/12/04 02:51:43;;;;;;;1.67;0.95;;;;;;;6.20;86.88;98550.78;4994006;28;20046;-48
2023/12/04 02:54:09;;;;;;;4.55;1.27;;;;;;;6.16;87.26;98549.97;4997866;28;20078;-47
2023/12/04 02:56:36;;;;;;;2.47;2.03;;;;;;;6.17;87.64;98543.97;4993523;28;20427;-42
2023/12/04 02:59:03;;;;;;;2.28;1.60;;;;;;;6.12;87.11;98543.13;4984076;28;20348;-54
2023/12/04 03:01:30;;;;;;;4.38;1.65;;;;;;;6.13;88.04;98546.56;4987225;28;20046;-51
2023/12/04 03:03:56;;;;;;;3.72;1.83;;;;;;;6.07;87.24;98529.47;4980631;28;20053;-45
2023/12/04 03:06:23;;;;;;;3.08;1.20;;;;;;;6.04;86.46;98529.50;4991321;28;20061;-48
2023/12/04 03:08:50;;;;;;;1.50;0.85;;;;;;;6.00;87.05;98522.66;5003819;28;20129;-49
2023/12/04 03:11:17;;;;;;;1.90;1.63;;;;;;;5.98;86.33;98524.41;4994785;28;20456;-49
2023/12/04 03:13:44;;;;;;;1.13;0.55;;;;;;;6.02;87.00;98523.50;4997072;28;20108;-52
2023/12/04 03:16:18;;;;;;;1.90;1.45;;;;;;;5.92;85.70;98515.84;4992592;28;20080;-43
2023/12/04 03:18:45;;;;;;;1.60;1.15;;;;;;;5.94;86.31;98518.41;4993906;28;20058;-52
2023/12/04 03:21:12;;;;;;;1.60;0.88;;;;;;;5.85;86.51;98508.22;5004011;28;20057;-43
2023/12/04 03:23:38;;;;;;;1.23;0.50;;;;;;;5.83;86.69;98505.66;4993538;28;20041;-49
2023/12/04 03:26:05;;;;;;;1.75;1.15;;;;;;;5.87;86.07;98491.91;4984636;28;20051;-46
2023/12/04 03:28:32;;;;;;;1.30;0.63;;;;;;;5.87;86.79;98497.06;4998147;28;20045;-42
2023/12/04 03:30:59;;;;;;;0.82;0.65;;;;;;;5.84;85.47;98491.94;4988978;28;20050;-47
2023/12/04 03:33:26;;;;;;;3.08;1.70;;;;;;;5.87;86.23;98484.22;4983739;28;20860;-46
2023/12/04 03:35:53;;;;;;;3.20;1.92;;;;;;;5.79;85.52;98478.28;4987045;28;20446;-46
2023/12/04 03:38:20;;;;;;;2.45;0.93;;;;;;;5.76;85.99;98489.44;4994782;28;20054;-44
2023/12/04 03:40:46;;;;;;;1.45;0.85;;;;;;;5.79;86.01;98479.16;4987313;28;20066;-42
2023/12/04 03:43:13;;;;;;;1.67;0.70;;;;;;;5.83;85.14;98467.13;4986650;28;20046;-50
2023/12/04 03:45:39;;;;;;;1.63;1.00;;;;;;;5.85;86.00;98477.38;4987038;28;20054;-50
2023/12/04 03:48:06;;;;;;;3.28;1.17;;;;;;;5.81;85.60;98466.25;4988298;28;20069;-48
2023/12/04 03:50:33;;;;;;;4.00;1.33;;;;;;;5.76;85.91;98470.59;4997785;28;20073;-47
2023/12/04 03:52:59;;;;;;;3.50;1.20;;;;;;;5.74;86.13;98460.34;4992505;28;20096;-45
2023/12/04 03:55:26;;;;;;;3.05;1.40;;;;;;;5.75;86.31;98466.34;4994924;28;20038;-51
2023/12/04 03:57:56;;;;;;;4.47;2.47;;;;;;;5.68;85.55;98464.69;4993351;28;20045;-47
2023/12/04 04:00:23;;;;;;;4.80;2.35;;;;;;;5.63;86.07;98452.72;4997842;28;20050;-45
2023/12/04 04:02:50;;;;;;;3.22;1.70;;;;;;;5.65;85.91;98455.28;4997060;28;20044;-46
2023/12/04 04:05:16;;;;;;;5.35;1.98;;;;;;;5.61;85.91;98444.16;4989463;28;20073;-46
2023/12/04 04:07:43;;;;;;;3.80;1.50;;;;;;;5.66;86.08;98437.31;4994839;28;20046;-48
2023/12/04 04:10:10;;;;;;;6.40;2.65;;;;;;;5.68;85.62;98441.56;4981975;28;20054;-47
2023/12/04 04:12:37;;;;;;;4.95;3.53;;;;;;;5.62;86.66;98439.91;4980166;28;20535;-48
2023/12/04 04:15:04;;;;;;;6.30;2.05;;;;;;;5.57;85.83;98437.34;4994628;28;20108;-45
2023/12/04 04:17:32;;;;;;;5.13;3.05;;;;;;;5.65;85.03;98430.44;4998900;28;20050;-50
2023/12/04 04:19:59;;;;;;;4.43;1.90;;;;;;;5.57;86.02;98419.38;4991265;28;20046;-46
2023/12/04 04:22:25;;;;;;;5.20;2.20;;;;;;;5.59;86.57;98420.22;4997901;28;20053;-47
2023/12/04 04:24:52;;;;;;;5.45;2.92;;;;;;;5.58;86.50;98408.28;4992131;28;20056;-44
2023/12/04 04:27:20;;;;;;;3.28;1.63;;;;;;;5.54;85.06;98406.56;4997219;28;20054;-42
2023/12/04 04:29:47;;;;;;;6.95;2.03;;;;;;;5.41;85.56;98398.13;4993346;28;20058;-46
2023/12/04 04:32:14;;;;;;;3.65;1.73;;;;;;;5.48;85.05;98396.38;4998775;28;20050;-51
2023/12/04 04:34:40;;;;;;;5.13;2.33;;;;;;;5.48;85.54;98397.22;4999837;28;20046;-44
2023/12/04 04:37:07;;;;;;;3.78;1.80;;;;;;;5.47;85.93;98389.53;5002422;28;20042;-51
2023/12/04 04:39:34;;;;;;;7.70;2.83;;;;;;;5.50;84.99;98389.47;5004756;28;20050;-46
2023/12/04 04:42:01;;;;;;;4.28;2.03;;;;;;;5.46;86.32;98382.66;4991927;28;20099;-46
2023/12/04 04:44:28;;;;;;;5.30;2.00;;;;;;;5.43;85.35;98372.44;4991787;28;20141;-49
2023/12/04 04:46:54;;;;;;;6.60;3.28;;;;;;;5.46;85.48;98363.00;4989983;28;20451;-46
2023/12/04 04:49:21;;;;;;;5.07;2.17;;;;;;;5.50;85.85;98358.66;4987220;28;20051;-44
2023/12/04 04:51:48;;;;;;;5.95;2.78;;;;;;;5.49;84.52;98356.97;4994972;28;20096;-44
2023/12/04 04:54:15;;;;;;;3.35;2.08;;;;;;;5.40;85.44;98343.34;4999363;28;20050;-48
2023/12/04 04:56:41;;;;;;;4.13;2.22;;;;;;;5.46;85.61;98351.84;4991947;28;20069;-48
2023/12/04 04:59:08;;;;;;;4.70;1.95;;;;;;;5.35;84.44;98349.41;4980231;28;20046;-46
2023/12/04 05:01:36;;;;;;;4.82;2.30;;;;;;;5.38;85.30;98345.06;4986882;28;20046;-42
2023/12/04 05:04:03;;;;;;;4.53;2.00;;;;;;;5.37;85.87;98348.50;4997340;28;20054;-51
2023/12/04 05:06:30;;;;;;;3.65;2.20;;;;;;;5.32;85.55;98360.53;4985995;28;20046;-47
2023/12/04 05:08:57;;;;;;;6.38;1.67;;;;;;;5.32;84.88;98344.28;4996638;28;20060;-46
2023/12/04 05:11:23;;;;;;;2.83;1.70;;;;;;;5.32;85.89;98344.28;4989073;28;20061;-43
2023/12/04 05:13:50;;;;;;;4.07;2.70;;;;;;;5.32;85.59;98340.00;4988694;28;20407;-50
2023/12/04 05:16:17;;;;;;;4.85;1.65;;;;;;;5.29;85.76;98334.91;4985018;28;20050;-45
2023/12/04 05:18:44;;;;;;;4.32;1.48;;;;;;;5.23;84.75;98337.50;5000295;28;20045;-49
2023/12/04 05:21:11;;;;;;;9.40;1.83;;;;;;;5.17;85.65;98335.00;5000318;28;20145;-50
2023/12/04 05:23:38;;;;;;;2.97;1.80;;;;;;;5.21;85.24;98328.97;4995346;28;20679;-48
2023/12/04 05:26:06;;;;;;;4.40;1.85;;;;;;;5.20;85.47;98335.00;4994576;28;20049;-43
2023/12/04 05:28:34;;;;;;;5.60;2.83;;;;;;;5.16;85.24;98338.44;4998789;28;20673;-49
2023/12/04 05:31:00;;;;;;;5.80;2.28;;;;;;;5.09;85.95;98323.09;4979939;28;20051;-44
2023/12/04 05:33:27;;;;;;;5.13;1.80;;;;;;;5.04;85.85;98321.41;4993772;28;20109;-51
2023/12/04 05:35:54;;;;;;;5.45;2.47;;;;;;;5.06;85.15;98330.81;4990303;28;20050;-47
2023/12/04 05:38:21;;;;;;;3.65;2.10;;;;;;;5.03;85.64;98322.28;4990478;28;20047;-45
2023/12/04 05:40:48;;;;;;;5.95;2.35;;;;;;;5.02;86.01;98313.72;4996254;28;20058;-52
2023/12/04 05:43:15;;;;;;;5.10;2.72;;;;;;;5.01;86.37;98312.03;4993165;28;20052;-46
2023/12/04 05:45:42;;;;;;;6.97;2.22;;;;;;;4.95;86.17;98309.50;4990741;28;20514;-48
2023/12/04 05:48:08;;;;;;;5.22;3.33;;;;;;;4.92;86.45;98304.41;4983170;28;20038;-47
2023/12/04 05:50:35;;;;;;;2.53;1.73;;;;;;;4.86;85.83;98305.28;4997116;28;20050;-46
2023/12/04 05:53:02;;;;;;;3.15;1.75;;;;;;;4.95;86.37;98305.25;4999273;28;20128;-46
2023/12/04 05:55:28;;;;;;;4.72;2.58;;;;;;;4.97;85.80;98300.09;4996720;28;20051;-45
2023/12/04 05:57:55;;;;;;;3.10;1.60;;;;;;;4.93;86.75;98301.00;4990711;28;20045;-47
2023/12/04 06:00:22;;;;;;;3.85;1.92;;;;;;;4.93;86.59;98295.84;4998052;28;20058;-47
2023/12/04 06:02:52;;;;;;;3.88;1.77;;;;;;;4.88;85.93;98289.06;4988577;28;20057;-51
2023/12/04 06:05:19;;;;;;;4.90;2.00;;;;;;;4.92;86.19;98294.13;4996691;28;20054;-48
2023/12/04 06:07:46;;;;;;;6.13;2.13;;;;;;;4.91;86.13;98295.88;5002000;28;20046;-46
2023/12/04 06:10:13;;;;;;;4.25;1.48;;;;;;;4.89;85.99;98274.50;4997672;28;20058;-44
2023/12/04 06:12:40;;;;;;;4.40;1.73;;;;;;;4.89;86.33;98277.91;4994298;28;20057;-52
2023/12/04 06:15:07;;;;;;;3.20;2.17;;;;;;;4.87;87.03;98282.19;4990949;28;20046;-46
2023/12/04 06:17:34;;;;;;;4.65;2.38;;;;;;;4.86;86.99;98275.38;4997869;28;20503;-48
2023/12/04 06:20:00;;;;;;;4.18;3.25;;;;;;;4.90;86.31;98276.22;4987030;28;20399;-42
2023/12/04 06:22:27;;;;;;;3.88;1.92;;;;;;;4.89;87.05;98264.22;4990414;28;20054;-46
2023/12/04 06:24:54;;;;;;;3.45;1.73;;;;;;;4.89;86.55;98269.34;4995061;28;20054;-43
2023/12/04 06:27:21;;;;;;;2.85;1.83;;;;;;;4.80;86.54;98270.28;4983702;28;20125;-45
2023/12/04 06:29:50;;;;;;;3.95;2.70;;;;;;;4.90;86.15;98263.38;4979136;28;20050;-47
2023/12/04 06:32:19;;;;;;;5.05;1.90;;;;;;;4.93;85.88;98259.94;4989554;28;20054;-50
2023/12/04 06:34:46;;;;;;;4.88;2.35;;;;;;;4.91;86.92;98261.66;4987637;28;20046;-48
2023/12/04 06:37:14;;;;;;;6.40;2.08;;;;;;;4.87;86.05;98259.09;5005179;28;20149;-47
2023/12/04 06:39:41;;;;;;;8.45;2.42;;;;;;;4.85;87.19;98255.72;4997321;28;20053;-54
2023/12/04 06:42:09;;;;;;;3.03;1.80;;;;;;;4.86;87.47;98252.28;5003965;28;20108;-50
2023/12/04 06:44:36;;;;;;;3.97;2.28;;;;;;;4.86;87.38;98249.72;4996622;28;20042;-43
2023/12/04 06:47:04;;;;;;;3.90;1.73;;;;;;;4.91;86.45;98251.38;4997810;28;20129;-43
2023/12/04 06:49:32;;;;;;;3.00;1.45;;;;;;;4.86;86.63;98252.28;4998152;28;20049;-48
2023/12/04 06:52:00;;;;;;;4.55;1.95;;;;;;;4.87;86.66;98246.28;4998327;28;20052;-47
2023/12/04 06:54:27;;;;;;;2.55;1.88;;;;;;;4.88;86.20;98242.88;4997711;28;20053;-48
2023/12/04 06:56:54;;;;;;;3.40;1.95;;;;;;;4.93;86.25;98244.53;4989612;28;20064;-44
2023/12/04 06:59:21;;;;;;;5.72;2.28;;;;;;;4.91;86.95;98241.13;4995653;28;20046;-53
2023/12/04 07:01:47;;;;;;;2.90;1.60;;;;;;;4.85;87.51;98240.31;4992807;28;20046;-43
2023/12/04 07:04:20;;;;;;;3.40;2.20;;;;;;;4.86;87.49;98234.31;4991628;28;20109;-42
2023/12/04 07:06:48;;;;;;;2.92;2.17;;;;;;;4.87;87.18;98240.31;4995470;28;20100;-46
2023/12/04 07:09:16;;;;;;;7.28;2.40;;;;;;;4.89;87.45;98234.31;5003068;28;20053;-43
2023/12/04 07:11:44;;;;;;;3.13;1.55;;;;;;;4.88;86.99;98227.47;4996567;28;20121;-41
2023/12/04 07:14:12;;;;;;;5.32;3.42;;;;;;;4.93;86.65;98231.72;4991640;28;20453;-42
2023/12/04 07:16:41;;;;;;;3.55;1.90;;;;;;;4.91;86.51;98239.44;5000121;28;20046;-46
2023/12/04 07:19:08;;;;;;;4.28;1.55;;;;;;;4.92;87.96;98235.13;4995363;28;20465;-57
2023/12/04 07:21:37;;;;;;;4.40;2.53;;;;;;;4.92;87.33;98237.69;4990593;28;20064;-43
2023/12/04 07:24:04;;;;;;;3.15;1.63;;;;;;;4.94;86.81;98230.84;5003097;28;20429;-45
2023/12/04 07:26:33;;;;;;;3.70;2.03;;;;;;;4.92;87.67;98228.28;4995832;28;20100;-43
2023/12/04 07:29:00;;;;;;;4.55;1.90;;;;;;;4.89;87.01;98234.31;4989202;28;20053;-46
2023/12/04 07:31:26;;;;;;;5.93;3.13;;;;;;;4.96;86.95;98229.13;4990475;28;20479;-44
2023/12/04 07:33:54;;;;;;;5.05;2.50;;;;;;;4.87;87.79;98230.88;4987214;28;20580;-50
2023/12/04 07:36:20;;;;;;;4.43;1.85;;;;;;;4.94;86.90;98231.69;4994789;28;20053;-48
2023/12/04 07:38:49;;;;;;;7.88;2.13;;;;;;;4.95;87.53;98235.09;4996296;28;20056;-48
2023/12/04 07:41:17;;;;;;;4.68;1.90;;;;;;;4.99;87.65;98229.06;4994845;28;20097;-47
2023/12/04 07:43:43;;;;;;;3.20;2.03;;;;;;;4.97;87.61;98230.81;4988291;28;20088;-48
2023/12/04 07:46:11;;;;;;;4.28;2.80;;;;;;;5.00;87.40;98226.50;4993265;28;20042;-49
2023/12/04 07:48:38;;;;;;;3.38;1.38;;;;;;;5.03;87.09;98225.63;5003019;28;20054;-40
2023/12/04 07:51:07;;;;;;;3.78;2.20;;;;;;;5.00;87.78;98229.06;4999732;28;20133;-46
2023/12/04 07:53:34;;;;;;;4.72;1.85;;;;;;;5.01;87.83;98227.34;5004018;28;20096;-48
2023/12/04 07:56:03;;;;;;;4.28;2.53;;;;;;;5.01;87.04;98224.78;4989629;28;20054;-48
2023/12/04 07:58:31;;;;;;;2.42;1.33;;;;;;;4.97;87.14;98223.94;4996124;28;20104;-43
2023/12/04 08:00:58;;;;;;;1.85;1.20;;;;;;;4.92;88.06;98228.28;4995105;28;20050;-53
2023/12/04 08:03:25;;;;;;;3.20;1.63;;;;;;;4.99;87.98;98229.94;4996198;28;20642;-44
2023/12/04 08:05:52;;;;;;;3.00;1.50;;;;;;;5.00;87.38;98236.75;4993285;28;20054;-43
2023/12/04 08:08:19;;;;;;;4.25;2.97;;;;;;;4.91;87.34;98228.28;4994834;28;20345;-60
2023/12/04 08:10:46;;;;;;;3.00;1.45;;;;;;;4.98;87.01;98235.06;4989174;28;20054;-50
2023/12/04 08:13:12;;;;;;;1.98;0.90;;;;;;;4.94;87.52;98228.28;4995527;28;20519;-47
2023/12/04 08:15:39;;;;;;;7.75;2.38;;;;;;;5.03;86.82;98225.63;4998840;28;20136;-50
2023/12/04 08:18:06;;;;;;;7.22;2.28;;;;;;;5.01;87.17;98232.50;4994688;28;20137;-44
2023/12/04 08:20:33;;;;;;;6.05;1.88;;;;;;;4.98;88.00;98227.38;4992670;28;20129;-49
2023/12/04 08:23:06;;;;;;;5.25;1.88;;;;;;;5.00;87.04;98223.09;4997889;28;20073;-47
2023/12/04 08:25:33;;;;;;;3.45;1.55;;;;;;;4.95;87.74;98227.41;4994659;28;20069;-53
2023/12/04 08:28:00;;;;;;;3.83;1.98;;;;;;;5.05;87.72;98223.03;4997811;28;20044;-52
2023/12/04 08:30:27;;;;;;;2.17;1.27;;;;;;;4.97;87.49;98220.56;4986540;28;20050;-44
2023/12/04 08:32:54;;;;;;;3.33;2.03;;;;;;;4.96;87.79;98229.13;4995866;28;20503;-46
2023/12/04 08:35:21;;;;;;;5.30;2.78;;;;;;;5.00;87.07;98218.78;4986462;28;20046;-47
2023/12/04 08:37:48;;;;;;;4.13;3.00;;;;;;;5.02;86.58;98218.78;4988046;28;20495;-44
2023/12/04 08:40:16;;;;;;;3.90;1.88;;;;;;;5.05;86.85;98218.75;4987532;28;20058;-44
2023/12/04 08:42:44;;;;;;;4.95;3.28;;;;;;;5.06;87.93;98212.75;4989025;28;20054;-45
2023/12/04 08:45:11;;;;;;;5.03;2.63;;;;;;;5.11;86.47;98218.72;4985928;28;20738;-49
2023/12/04 08:47:38;;;;;;;5.22;2.22;;;;;;;5.08;87.57;98229.00;4993133;28;20727;-50
2023/12/04 08:50:05;;;;;;;6.55;3.10;;;;;;;5.13;86.56;98234.94;5006191;28;20054;-49
2023/12/04 08:52:32;;;;;;;5.10;2.05;;;;;;;5.10;86.63;98237.53;4996652;28;20126;-50
2023/12/04 08:55:00;;;;;;;8.10;3.00;;;;;;;5.14;86.45;98239.19;4996301;28;20055;-49
2023/12/04 08:57:27;;;;;;;13.65;4.05;;;;;;;5.16;86.43;98231.47;4996537;28;20053;-48
2023/12/04 08:59:54;;;;;;;7.22;3.25;;;;;;;5.23;86.74;98232.25;4990114;28;20042;-51
2023/12/04 09:02:20;;;;;;;6.55;3.75;;;;;;;5.23;85.90;98233.13;4993403;28;20135;-45
2023/12/04 09:04:47;;;;;;;9.05;3.80;;;;;;;5.24;87.34;98229.69;4997306;28;20051;-45
2023/12/04 09:07:14;;;;;;;7.10;3.75;;;;;;;5.27;86.00;98233.97;4994791;28;20068;-47
2023/12/04 09:09:46;;;;;;;14.25;4.25;;;;;;;5.26;85.91;98227.09;4992148;28;20042;-47
2023/12/04 09:12:13;;;;;;;6.75;3.03;;;;;;;5.23;86.41;98238.25;4988912;28;20074;-46
2023/12/04 09:14:40;;;;;;;8.68;3.70;;;;;;;5.29;86.66;98232.22;5002697;28;20042;-50
2023/12/04 09:17:07;;;;;;;10.13;4.70;;;;;;;5.32;85.68;98234.75;4992877;28;20050;-50
2023/12/04 09:19:34;;;;;;;15.05;4.97;;;;;;;5.33;86.46;98228.75;5000385;28;20042;-50
2023/12/04 09:22:01;;;;;;;10.52;4.18;;;;;;;5.36;86.30;98227.84;4992608;28;20526;-46
2023/12/04 09:24:42;;;;;;;13.80;5.13;;;;;;;5.34;85.47;98229.59;4993674;28;20038;-53
2023/12/04 09:27:09;;;;;;;10.23;4.18;;;;;;;5.33;85.76;98223.59;5000493;28;20050;-50
2023/12/04 09:29:35;;;;;;;9.27;4.00;;;;;;;5.33;85.77;98223.59;4999380;28;20283;-47
2023/12/04 09:32:02;;;;;;;8.95;4.10;;;;;;;5.36;86.66;98236.41;4988765;28;20064;-40
2023/12/04 09:34:29;;;;;;;5.72;2.58;;;;;;;5.38;86.54;98239.81;4991490;28;20038;-51
2023/12/04 09:36:55;;;;;;;9.60;4.47;;;;;;;5.43;86.08;98233.78;4999820;28;20050;-47
2023/12/04 09:39:34;;;;;;;13.70;3.67;;;;;;;5.36;87.11;98243.25;5001719;28;20143;-45
2023/12/04 09:42:02;;;;;;;10.05;4.80;;;;;;;5.41;86.05;98251.78;5006324;28;20609;-46
2023/12/04 09:44:30;;;;;;;16.75;5.05;;;;;;;5.42;86.09;98242.34;4997118;28;20084;-46
2023/12/04 09:46:59;;;;;;;10.57;3.97;;;;;;;5.42;85.39;98245.78;5000320;28;20045;-47
2023/12/04 09:49:28;;;;;;;11.18;4.60;;;;;;;5.44;85.77;98240.63;4997317;28;20079;-50
2023/12/04 09:51:58;;;;;;;10.07;4.10;;;;;;;5.44;85.34;98232.91;5005529;28;20042;-43
2023/12/04 09:54:26;;;;;;;13.90;5.50;;;;;;;5.46;85.43;98238.88;4997003;28;20046;-51
2023/12/04 09:56:54;;;;;;;12.18;4.45;;;;;;;5.45;85.26;98237.19;5004065;28;20045;-48
2023/12/04 09:59:25;;;;;;;13.25;5.32;;;;;;;5.51;86.00;98237.13;5003951;28;20054;-48
2023/12/04 10:01:52;;;;;;;20.48;4.78;;;;;;;5.53;86.42;98245.63;4998266;28;20051;-43
2023/12/04 10:04:21;;;;;;;13.48;3.95;;;;;;;5.51;86.09;98242.25;5000298;28;20500;-49
2023/12/04 10:06:51;;;;;;;10.65;3.65;;;;;;;5.55;85.21;98238.78;4997553;28;20136;-47
2023/12/04 10:09:19;;;;;;;10.82;4.00;;;;;;;5.56;86.04;98239.63;4997344;28;20061;-49
2023/12/04 10:11:46;;;;;;;13.88;4.82;;;;;;;5.55;85.49;98233.66;5001993;28;20054;-49
2023/12/04 10:14:17;;;;;;;10.32;4.20;;;;;;;5.57;85.56;98242.16;4998194;28;20079;-49
2023/12/04 10:16:44;;;;;;;12.90;5.45;;;;;;;5.59;85.03;98240.44;4996745;28;20384;-49
2023/12/04 10:19:17;;;;;;;13.43;5.40;;;;;;;5.62;85.61;98245.56;4999086;28;20470;-49
2023/12/04 10:21:47;;;;;;;13.20;4.90;;;;;;;5.63;86.19;98252.38;5000478;28;20038;-50
2023/12/04 10:24:35;;;;;;;15.18;4.88;;;;;;;5.65;85.30;98245.50;4987731;28;20046;-48
2023/12/04 10:27:05;;;;;;;10.98;4.20;;;;;;;5.71;85.91;98246.31;4985071;28;20133;-45
2023/12/04 10:29:43;;;;;;;9.85;3.53;;;;;;;5.72;84.83;98246.28;4985869;28;20062;-48
2023/12/04 10:32:10;;;;;;;15.00;5.72;;;;;;;5.75;84.60;98248.81;4970542;28;20409;-53
2023/12/04 10:34:38;;;;;;;6.25;3.10;;;;;;;5.75;84.67;98247.97;4987173;28;20058;-46
2023/12/04 10:37:05;;;;;;;16.52;4.15;;;;;;;5.79;85.24;98241.91;4985870;28;20042;-48
2023/12/04 10:39:46;;;;;;;11.45;4.30;;;;;;;5.79;85.64;98236.78;4986953;28;20053;-52
2023/12/04 10:42:24;;;;;;;11.45;4.18;;;;;;;5.81;84.93;98229.06;4986301;28;20644;-46
2023/12/04 10:44:54;;;;;;;13.57;4.35;;;;;;;5.84;85.03;98240.13;4988844;28;20038;-40
2023/12/04 10:47:21;;;;;;;11.38;4.63;;;;;;;5.84;85.90;98232.44;4983465;28;20050;-42
2023/12/04 10:49:50;;;;;;;10.98;4.50;;;;;;;5.86;85.72;98232.41;4984378;28;20065;-46
2023/12/04 10:52:21;;;;;;;11.15;3.88;;;;;;;5.85;85.04;98226.44;4985060;28;20050;-47
2023/12/04 10:54:49;;;;;;;6.57;3.33;;;;;;;5.81;84.73;98222.19;4983964;28;20050;-43
2023/12/04 10:57:25;;;;;;;8.90;3.63;;;;;;;5.83;85.38;98225.59;4986295;28;20077;-48
2023/12/04 10:59:57;;;;;;;9.95;4.43;;;;;;;5.77;85.91;98229.09;4984605;28;20058;-51
2023/12/04 11:02:28;;;;;;;18.25;5.03;;;;;;;5.76;85.51;98226.53;4985849;28;20050;-52
2023/12/04 11:05:02;;;;;;;11.57;4.00;;;;;;;5.75;84.93;98230.81;4984258;28;21651;-47
2023/12/04 11:07:33;;;;;;;12.45;3.67;;;;;;;5.72;86.41;98219.75;4985676;28;20073;-46
2023/12/04 11:10:24;;;;;;;9.10;4.18;;;;;;;5.73;85.19;98236.84;4985519;28;20104;-47
2023/12/04 11:12:58;;;;;;;10.63;4.85;;;;;;;5.77;85.40;98233.38;4983415;28;20073;-46
2023/12/04 11:15:27;;;;;;;9.50;4.47;;;;;;;5.71;85.52;98233.47;4993230;28;20130;-44
2023/12/04 11:18:01;;;;;;;13.35;3.55;;;;;;;5.70;85.36;98229.16;4987242;28;20054;-44
2023/12/04 11:20:31;;;;;;;12.25;5.10;;;;;;;5.75;86.18;98229.97;4982821;28;20774;-46
2023/12/04 11:22:59;;;;;;;10.68;5.70;;;;;;;5.77;85.15;98228.22;4982931;28;20421;-50
2023/12/04 11:25:26;;;;;;;11.57;5.38;;;;;;;5.74;85.44;98224.00;4984640;28;20423;-46
2023/12/04 11:27:53;;;;;;;7.72;3.42;;;;;;;5.73;85.15;98216.28;4984548;28;20061;-53
2023/12/04 11:30:20;;;;;;;7.90;3.40;;;;;;;5.72;86.43;98228.31;4983913;28;20084;-47
2023/12/04 11:32:49;;;;;;;6.95;3.75;;;;;;;5.72;85.43;98218.03;4984907;28;20066;-46
2023/12/04 11:35:17;;;;;;;10.30;4.00;;;;;;;5.71;85.76;98213.75;4984127;28;20039;-46
2023/12/04 11:37:46;;;;;;;8.70;4.07;;;;;;;5.71;85.53;98223.19;4983986;28;20504;-43
2023/12/04 11:40:15;;;;;;;10.80;3.30;;;;;;;5.70;86.57;98221.47;4982953;28;20054;-49
2023/12/04 11:42:42;;;;;;;10.13;2.83;;;;;;;5.71;86.74;98223.19;4982817;28;20046;-45